sensor_id;sensor_type;location;lat;lon;timestamp;P1;durP1;ratioP1;P2;durP2;ratioP2
9208;SDS011;4639;48.862;9.188;2022-12-29T00:01:44;2.35;;;1.90;;
9208;SDS011;4639;48.862;9.188;2022-12-29T00:04:11;2.70;;;1.73;;
9208;SDS011;4639;48.862;9.188;2022-12-29T00:06:38;2.13;;;1.80;;
9208;SDS011;4639;48.862;9.188;2022-12-29T00:09:04;2.40;;;1.80;;
9208;SDS011;4639;48.862;9.188;2022-12-29T00:11:30;3.30;;;1.85;;
9208;SDS011;4639;48.862;9.188;2022-12-29T00:13:55;2.17;;;1.70;;
9208;SDS011;4639;48.862;9.188;2022-12-29T00:16:41;3.15;;;1.70;;
9208;SDS011;4639;48.862;9.188;2022-12-29T00:19:08;1.88;;;1.30;;
9208;SDS011;4639;48.862;9.188;2022-12-29T00:21:54;2.22;;;1.77;;
9208;SDS011;4639;48.862;9.188;2022-12-29T00:24:55;5.47;;;1.83;;
9208;SDS011;4639;48.862;9.188;2022-12-29T00:27:27;2.20;;;1.50;;
9208;SDS011;4639;48.862;9.188;2022-12-29T00:30:14;4.75;;;1.50;;
9208;SDS011;4639;48.862;9.188;2022-12-29T00:33:00;2.08;;;1.75;;
9208;SDS011;4639;48.862;9.188;2022-12-29T00:36:03;2.20;;;1.60;;
9208;SDS011;4639;48.862;9.188;2022-12-29T00:38:37;1.73;;;1.33;;
9208;SDS011;4639;48.862;9.188;2022-12-29T00:41:23;2.72;;;1.30;;
9208;SDS011;4639;48.862;9.188;2022-12-29T00:44:08;2.25;;;1.88;;
9208;SDS011;4639;48.862;9.188;2022-12-29T00:46:36;3.17;;;1.98;;
9208;SDS011;4639;48.862;9.188;2022-12-29T00:49:02;3.55;;;1.73;;
9208;SDS011;4639;48.862;9.188;2022-12-29T00:51:47;2.30;;;1.75;;
9208;SDS011;4639;48.862;9.188;2022-12-29T00:54:13;2.60;;;1.48;;
9208;SDS011;4639;48.862;9.188;2022-12-29T00:56:39;3.90;;;2.08;;
9208;SDS011;4639;48.862;9.188;2022-12-29T00:59:06;3.13;;;1.75;;
9208;SDS011;4639;48.862;9.188;2022-12-29T01:01:33;2.50;;;1.67;;
9208;SDS011;4639;48.862;9.188;2022-12-29T01:04:00;2.90;;;1.67;;
9208;SDS011;4639;48.862;9.188;2022-12-29T01:06:25;3.42;;;1.48;;
9208;SDS011;4639;48.862;9.188;2022-12-29T01:08:51;3.97;;;1.48;;
9208;SDS011;4639;48.862;9.188;2022-12-29T01:11:35;2.13;;;1.60;;
9208;SDS011;4639;48.862;9.188;2022-12-29T01:14:01;2.17;;;1.50;;
9208;SDS011;4639;48.862;9.188;2022-12-29T01:16:27;4.03;;;1.50;;
9208;SDS011;4639;48.862;9.188;2022-12-29T01:18:53;3.42;;;1.90;;
9208;SDS011;4639;48.862;9.188;2022-12-29T01:21:19;1.75;;;1.65;;
9208;SDS011;4639;48.862;9.188;2022-12-29T01:23:45;3.17;;;1.80;;
9208;SDS011;4639;48.862;9.188;2022-12-29T01:26:11;3.83;;;1.50;;
9208;SDS011;4639;48.862;9.188;2022-12-29T01:28:38;2.97;;;1.70;;
9208;SDS011;4639;48.862;9.188;2022-12-29T01:31:05;3.22;;;1.83;;
9208;SDS011;4639;48.862;9.188;2022-12-29T01:33:31;3.67;;;1.88;;
9208;SDS011;4639;48.862;9.188;2022-12-29T01:36:00;3.30;;;1.98;;
9208;SDS011;4639;48.862;9.188;2022-12-29T01:38:30;2.55;;;1.85;;
9208;SDS011;4639;48.862;9.188;2022-12-29T01:40:56;3.22;;;2.00;;
9208;SDS011;4639;48.862;9.188;2022-12-29T01:46:20;4.90;;;1.75;;
9208;SDS011;4639;48.862;9.188;2022-12-29T01:48:52;3.22;;;1.80;;
9208;SDS011;4639;48.862;9.188;2022-12-29T01:51:27;2.95;;;1.80;;
9208;SDS011;4639;48.862;9.188;2022-12-29T01:53:55;1.80;;;1.60;;
9208;SDS011;4639;48.862;9.188;2022-12-29T01:56:23;2.55;;;1.60;;
9208;SDS011;4639;48.862;9.188;2022-12-29T01:58:50;3.15;;;1.50;;
9208;SDS011;4639;48.862;9.188;2022-12-29T02:01:24;4.03;;;1.73;;
9208;SDS011;4639;48.862;9.188;2022-12-29T02:03:49;2.13;;;1.65;;
9208;SDS011;4639;48.862;9.188;2022-12-29T02:06:51;4.10;;;1.77;;
9208;SDS011;4639;48.862;9.188;2022-12-29T02:09:14;3.33;;;1.55;;
9208;SDS011;4639;48.862;9.188;2022-12-29T02:11:40;4.28;;;1.48;;
9208;SDS011;4639;48.862;9.188;2022-12-29T02:14:12;2.30;;;1.40;;
9208;SDS011;4639;48.862;9.188;2022-12-29T02:16:50;3.60;;;1.85;;
9208;SDS011;4639;48.862;9.188;2022-12-29T02:22:28;3.13;;;1.38;;
9208;SDS011;4639;48.862;9.188;2022-12-29T02:33:34;3.53;;;1.70;;
9208;SDS011;4639;48.862;9.188;2022-12-29T02:36:29;9.95;;;1.80;;
9208;SDS011;4639;48.862;9.188;2022-12-29T02:41:58;9.13;;;2.97;;
9208;SDS011;4639;48.862;9.188;2022-12-29T02:49:38;7.65;;;2.90;;
9208;SDS011;4639;48.862;9.188;2022-12-29T02:52:15;4.53;;;2.33;;
9208;SDS011;4639;48.862;9.188;2022-12-29T02:54:44;4.32;;;1.90;;
9208;SDS011;4639;48.862;9.188;2022-12-29T02:57:15;4.57;;;1.67;;
9208;SDS011;4639;48.862;9.188;2022-12-29T03:02:54;4.00;;;1.73;;
9208;SDS011;4639;48.862;9.188;2022-12-29T03:11:19;1.65;;;1.55;;
9208;SDS011;4639;48.862;9.188;2022-12-29T03:14:27;5.60;;;1.70;;
9208;SDS011;4639;48.862;9.188;2022-12-29T03:20:06;3.90;;;1.45;;
9208;SDS011;4639;48.862;9.188;2022-12-29T03:22:35;4.72;;;1.50;;
9208;SDS011;4639;48.862;9.188;2022-12-29T03:25:10;1.83;;;1.40;;
9208;SDS011;4639;48.862;9.188;2022-12-29T03:27:50;3.20;;;1.38;;
9208;SDS011;4639;48.862;9.188;2022-12-29T03:30:20;4.05;;;1.60;;
9208;SDS011;4639;48.862;9.188;2022-12-29T03:32:55;2.05;;;1.70;;
9208;SDS011;4639;48.862;9.188;2022-12-29T03:35:25;3.65;;;1.63;;
9208;SDS011;4639;48.862;9.188;2022-12-29T03:38:06;2.47;;;1.55;;
9208;SDS011;4639;48.862;9.188;2022-12-29T03:40:45;3.45;;;1.30;;
9208;SDS011;4639;48.862;9.188;2022-12-29T03:43:14;3.75;;;1.45;;
9208;SDS011;4639;48.862;9.188;2022-12-29T03:45:40;3.95;;;1.52;;
9208;SDS011;4639;48.862;9.188;2022-12-29T03:48:06;2.78;;;1.45;;
9208;SDS011;4639;48.862;9.188;2022-12-29T03:50:32;2.90;;;1.23;;
9208;SDS011;4639;48.862;9.188;2022-12-29T03:52:57;2.05;;;1.27;;
9208;SDS011;4639;48.862;9.188;2022-12-29T03:55:23;7.18;;;1.63;;
9208;SDS011;4639;48.862;9.188;2022-12-29T03:57:48;1.45;;;1.30;;
9208;SDS011;4639;48.862;9.188;2022-12-29T04:00:14;2.55;;;1.58;;
9208;SDS011;4639;48.862;9.188;2022-12-29T04:02:40;4.05;;;1.70;;
9208;SDS011;4639;48.862;9.188;2022-12-29T04:05:06;2.78;;;1.42;;
9208;SDS011;4639;48.862;9.188;2022-12-29T04:07:32;2.92;;;1.48;;
9208;SDS011;4639;48.862;9.188;2022-12-29T04:09:57;3.35;;;1.60;;
9208;SDS011;4639;48.862;9.188;2022-12-29T04:12:23;4.75;;;1.60;;
9208;SDS011;4639;48.862;9.188;2022-12-29T04:14:48;1.90;;;1.20;;
9208;SDS011;4639;48.862;9.188;2022-12-29T04:17:14;4.07;;;1.40;;
9208;SDS011;4639;48.862;9.188;2022-12-29T04:19:40;2.92;;;1.13;;
9208;SDS011;4639;48.862;9.188;2022-12-29T04:22:05;2.58;;;1.23;;
9208;SDS011;4639;48.862;9.188;2022-12-29T04:24:31;3.42;;;1.30;;
9208;SDS011;4639;48.862;9.188;2022-12-29T04:26:56;4.68;;;1.60;;
9208;SDS011;4639;48.862;9.188;2022-12-29T04:29:22;4.97;;;1.48;;
9208;SDS011;4639;48.862;9.188;2022-12-29T04:31:47;1.67;;;1.30;;
9208;SDS011;4639;48.862;9.188;2022-12-29T04:34:13;3.03;;;1.42;;
9208;SDS011;4639;48.862;9.188;2022-12-29T04:36:38;2.78;;;1.67;;
9208;SDS011;4639;48.862;9.188;2022-12-29T04:39:07;4.45;;;1.58;;
9208;SDS011;4639;48.862;9.188;2022-12-29T04:41:33;2.92;;;1.38;;
9208;SDS011;4639;48.862;9.188;2022-12-29T04:43:58;2.47;;;1.20;;
9208;SDS011;4639;48.862;9.188;2022-12-29T04:46:24;5.60;;;1.48;;
9208;SDS011;4639;48.862;9.188;2022-12-29T04:48:49;5.97;;;1.35;;
9208;SDS011;4639;48.862;9.188;2022-12-29T04:51:15;2.28;;;1.30;;
9208;SDS011;4639;48.862;9.188;2022-12-29T04:53:41;4.20;;;1.52;;
9208;SDS011;4639;48.862;9.188;2022-12-29T04:56:06;3.15;;;1.48;;
9208;SDS011;4639;48.862;9.188;2022-12-29T04:58:32;3.28;;;1.63;;
9208;SDS011;4639;48.862;9.188;2022-12-29T05:00:58;3.00;;;1.13;;
9208;SDS011;4639;48.862;9.188;2022-12-29T05:03:23;3.28;;;1.45;;
9208;SDS011;4639;48.862;9.188;2022-12-29T05:05:49;2.90;;;1.48;;
9208;SDS011;4639;48.862;9.188;2022-12-29T05:08:17;1.50;;;1.40;;
9208;SDS011;4639;48.862;9.188;2022-12-29T05:10:46;3.47;;;1.48;;
9208;SDS011;4639;48.862;9.188;2022-12-29T05:13:11;3.40;;;1.45;;
9208;SDS011;4639;48.862;9.188;2022-12-29T05:15:37;1.75;;;1.20;;
9208;SDS011;4639;48.862;9.188;2022-12-29T05:18:03;1.60;;;1.50;;
9208;SDS011;4639;48.862;9.188;2022-12-29T05:20:28;2.47;;;1.45;;
9208;SDS011;4639;48.862;9.188;2022-12-29T05:22:54;3.15;;;1.30;;
9208;SDS011;4639;48.862;9.188;2022-12-29T05:25:19;2.83;;;1.40;;
9208;SDS011;4639;48.862;9.188;2022-12-29T05:27:45;3.47;;;1.83;;
9208;SDS011;4639;48.862;9.188;2022-12-29T05:30:11;3.10;;;1.63;;
9208;SDS011;4639;48.862;9.188;2022-12-29T05:32:37;5.85;;;1.90;;
9208;SDS011;4639;48.862;9.188;2022-12-29T05:35:02;1.70;;;1.50;;
9208;SDS011;4639;48.862;9.188;2022-12-29T05:37:28;2.38;;;1.60;;
9208;SDS011;4639;48.862;9.188;2022-12-29T05:39:54;1.52;;;1.30;;
9208;SDS011;4639;48.862;9.188;2022-12-29T05:42:19;4.00;;;1.55;;
9208;SDS011;4639;48.862;9.188;2022-12-29T05:44:45;4.70;;;1.70;;
9208;SDS011;4639;48.862;9.188;2022-12-29T05:47:10;2.53;;;1.50;;
9208;SDS011;4639;48.862;9.188;2022-12-29T05:49:36;3.88;;;1.38;;
9208;SDS011;4639;48.862;9.188;2022-12-29T05:52:01;2.95;;;1.60;;
9208;SDS011;4639;48.862;9.188;2022-12-29T05:54:27;2.97;;;1.40;;
9208;SDS011;4639;48.862;9.188;2022-12-29T05:56:53;2.03;;;1.40;;
9208;SDS011;4639;48.862;9.188;2022-12-29T05:59:19;4.80;;;2.03;;
9208;SDS011;4639;48.862;9.188;2022-12-29T06:01:44;4.82;;;1.63;;
9208;SDS011;4639;48.862;9.188;2022-12-29T06:04:10;2.33;;;1.40;;
9208;SDS011;4639;48.862;9.188;2022-12-29T06:06:35;3.17;;;1.42;;
9208;SDS011;4639;48.862;9.188;2022-12-29T06:09:01;2.42;;;1.40;;
9208;SDS011;4639;48.862;9.188;2022-12-29T06:11:26;2.58;;;1.77;;
9208;SDS011;4639;48.862;9.188;2022-12-29T06:13:52;2.65;;;1.40;;
9208;SDS011;4639;48.862;9.188;2022-12-29T06:16:18;3.90;;;1.77;;
9208;SDS011;4639;48.862;9.188;2022-12-29T06:18:43;4.32;;;1.45;;
9208;SDS011;4639;48.862;9.188;2022-12-29T06:21:09;2.47;;;1.40;;
9208;SDS011;4639;48.862;9.188;2022-12-29T06:23:34;2.92;;;1.52;;
9208;SDS011;4639;48.862;9.188;2022-12-29T06:26:02;5.55;;;1.88;;
9208;SDS011;4639;48.862;9.188;2022-12-29T06:28:28;4.68;;;1.40;;
9208;SDS011;4639;48.862;9.188;2022-12-29T06:30:53;2.85;;;1.52;;
9208;SDS011;4639;48.862;9.188;2022-12-29T06:33:19;1.63;;;1.35;;
9208;SDS011;4639;48.862;9.188;2022-12-29T06:35:45;2.50;;;1.40;;
9208;SDS011;4639;48.862;9.188;2022-12-29T06:38:11;3.42;;;1.65;;
9208;SDS011;4639;48.862;9.188;2022-12-29T06:40:37;4.13;;;1.60;;
9208;SDS011;4639;48.862;9.188;2022-12-29T06:43:02;2.55;;;1.30;;
9208;SDS011;4639;48.862;9.188;2022-12-29T06:45:28;5.43;;;1.70;;
9208;SDS011;4639;48.862;9.188;2022-12-29T06:47:54;4.38;;;1.52;;
9208;SDS011;4639;48.862;9.188;2022-12-29T06:50:19;3.33;;;1.70;;
9208;SDS011;4639;48.862;9.188;2022-12-29T06:52:45;4.22;;;1.50;;
9208;SDS011;4639;48.862;9.188;2022-12-29T06:55:10;2.40;;;1.50;;
9208;SDS011;4639;48.862;9.188;2022-12-29T06:57:36;1.85;;;1.33;;
9208;SDS011;4639;48.862;9.188;2022-12-29T07:00:02;5.43;;;1.70;;
9208;SDS011;4639;48.862;9.188;2022-12-29T07:02:29;2.60;;;1.77;;
9208;SDS011;4639;48.862;9.188;2022-12-29T07:04:55;3.05;;;1.77;;
9208;SDS011;4639;48.862;9.188;2022-12-29T07:07:21;1.85;;;1.40;;
9208;SDS011;4639;48.862;9.188;2022-12-29T07:09:49;3.60;;;1.98;;
9208;SDS011;4639;48.862;9.188;2022-12-29T07:12:15;1.52;;;1.40;;
9208;SDS011;4639;48.862;9.188;2022-12-29T07:14:40;3.33;;;1.63;;
9208;SDS011;4639;48.862;9.188;2022-12-29T07:17:06;4.57;;;1.83;;
9208;SDS011;4639;48.862;9.188;2022-12-29T07:19:32;2.28;;;1.58;;
9208;SDS011;4639;48.862;9.188;2022-12-29T07:21:58;3.88;;;1.60;;
9208;SDS011;4639;48.862;9.188;2022-12-29T07:24:24;4.22;;;1.42;;
9208;SDS011;4639;48.862;9.188;2022-12-29T07:26:50;3.67;;;1.92;;
9208;SDS011;4639;48.862;9.188;2022-12-29T07:29:16;3.88;;;2.05;;
9208;SDS011;4639;48.862;9.188;2022-12-29T07:31:42;3.42;;;1.63;;
9208;SDS011;4639;48.862;9.188;2022-12-29T07:34:08;3.67;;;1.63;;
9208;SDS011;4639;48.862;9.188;2022-12-29T07:36:34;2.63;;;1.60;;
9208;SDS011;4639;48.862;9.188;2022-12-29T07:39:00;2.08;;;1.80;;
9208;SDS011;4639;48.862;9.188;2022-12-29T07:41:26;1.67;;;1.30;;
9208;SDS011;4639;48.862;9.188;2022-12-29T07:43:51;3.45;;;1.48;;
9208;SDS011;4639;48.862;9.188;2022-12-29T07:46:17;3.47;;;1.50;;
9208;SDS011;4639;48.862;9.188;2022-12-29T07:48:42;3.20;;;1.60;;
9208;SDS011;4639;48.862;9.188;2022-12-29T07:51:08;2.70;;;1.50;;
9208;SDS011;4639;48.862;9.188;2022-12-29T07:53:34;5.30;;;1.58;;
9208;SDS011;4639;48.862;9.188;2022-12-29T07:56:00;2.60;;;1.60;;
9208;SDS011;4639;48.862;9.188;2022-12-29T07:58:25;3.40;;;1.38;;
9208;SDS011;4639;48.862;9.188;2022-12-29T08:00:54;2.47;;;1.73;;
9208;SDS011;4639;48.862;9.188;2022-12-29T08:03:20;2.38;;;1.65;;
9208;SDS011;4639;48.862;9.188;2022-12-29T08:05:46;2.78;;;1.75;;
9208;SDS011;4639;48.862;9.188;2022-12-29T08:08:12;2.58;;;1.63;;
9208;SDS011;4639;48.862;9.188;2022-12-29T08:10:37;2.45;;;1.58;;
9208;SDS011;4639;48.862;9.188;2022-12-29T08:13:03;3.47;;;1.83;;
9208;SDS011;4639;48.862;9.188;2022-12-29T08:15:28;2.55;;;1.35;;
9208;SDS011;4639;48.862;9.188;2022-12-29T08:17:54;3.00;;;1.60;;
9208;SDS011;4639;48.862;9.188;2022-12-29T08:20:19;3.28;;;1.92;;
9208;SDS011;4639;48.862;9.188;2022-12-29T08:22:45;3.00;;;2.20;;
9208;SDS011;4639;48.862;9.188;2022-12-29T08:25:10;4.32;;;1.77;;
9208;SDS011;4639;48.862;9.188;2022-12-29T08:27:36;2.60;;;1.70;;
9208;SDS011;4639;48.862;9.188;2022-12-29T08:30:02;3.20;;;1.70;;
9208;SDS011;4639;48.862;9.188;2022-12-29T08:32:28;4.53;;;1.60;;
9208;SDS011;4639;48.862;9.188;2022-12-29T08:34:54;3.13;;;1.67;;
9208;SDS011;4639;48.862;9.188;2022-12-29T08:37:20;3.72;;;1.70;;
9208;SDS011;4639;48.862;9.188;2022-12-29T08:39:47;3.63;;;1.80;;
9208;SDS011;4639;48.862;9.188;2022-12-29T08:42:13;2.92;;;2.00;;
9208;SDS011;4639;48.862;9.188;2022-12-29T08:44:38;4.05;;;1.58;;
9208;SDS011;4639;48.862;9.188;2022-12-29T08:47:04;2.40;;;1.70;;
9208;SDS011;4639;48.862;9.188;2022-12-29T08:49:30;2.33;;;1.67;;
9208;SDS011;4639;48.862;9.188;2022-12-29T08:51:55;1.95;;;1.63;;
9208;SDS011;4639;48.862;9.188;2022-12-29T08:54:21;2.10;;;1.67;;
9208;SDS011;4639;48.862;9.188;2022-12-29T08:56:47;2.80;;;1.95;;
9208;SDS011;4639;48.862;9.188;2022-12-29T08:59:12;5.75;;;2.25;;
9208;SDS011;4639;48.862;9.188;2022-12-29T09:01:38;5.03;;;3.03;;
9208;SDS011;4639;48.862;9.188;2022-12-29T09:04:05;5.88;;;4.38;;
9208;SDS011;4639;48.862;9.188;2022-12-29T09:06:31;3.38;;;2.55;;
9208;SDS011;4639;48.862;9.188;2022-12-29T09:08:57;4.28;;;2.80;;
9208;SDS011;4639;48.862;9.188;2022-12-29T09:11:23;5.88;;;4.47;;
9208;SDS011;4639;48.862;9.188;2022-12-29T09:13:50;5.88;;;2.88;;
9208;SDS011;4639;48.862;9.188;2022-12-29T09:16:17;5.88;;;3.63;;
9208;SDS011;4639;48.862;9.188;2022-12-29T09:18:43;5.13;;;3.53;;
9208;SDS011;4639;48.862;9.188;2022-12-29T09:21:10;6.95;;;3.33;;
9208;SDS011;4639;48.862;9.188;2022-12-29T09:23:36;5.18;;;3.55;;
9208;SDS011;4639;48.862;9.188;2022-12-29T09:26:02;5.97;;;4.20;;
9208;SDS011;4639;48.862;9.188;2022-12-29T09:28:28;8.10;;;4.68;;
9208;SDS011;4639;48.862;9.188;2022-12-29T09:30:54;5.53;;;4.32;;
9208;SDS011;4639;48.862;9.188;2022-12-29T09:33:20;15.88;;;6.35;;
9208;SDS011;4639;48.862;9.188;2022-12-29T09:35:50;5.28;;;3.63;;
9208;SDS011;4639;48.862;9.188;2022-12-29T09:38:18;7.80;;;4.80;;
9208;SDS011;4639;48.862;9.188;2022-12-29T09:40:45;5.28;;;4.75;;
9208;SDS011;4639;48.862;9.188;2022-12-29T09:43:27;3.72;;;2.83;;
9208;SDS011;4639;48.862;9.188;2022-12-29T09:51:38;4.82;;;2.17;;
9208;SDS011;4639;48.862;9.188;2022-12-29T09:54:20;3.17;;;1.77;;
9208;SDS011;4639;48.862;9.188;2022-12-29T09:56:52;2.67;;;1.70;;
9208;SDS011;4639;48.862;9.188;2022-12-29T09:59:19;3.22;;;1.77;;
9208;SDS011;4639;48.862;9.188;2022-12-29T10:01:53;2.47;;;1.73;;
9208;SDS011;4639;48.862;9.188;2022-12-29T10:04:27;5.20;;;1.90;;
9208;SDS011;4639;48.862;9.188;2022-12-29T10:12:35;4.07;;;1.55;;
9208;SDS011;4639;48.862;9.188;2022-12-29T10:15:29;2.22;;;1.30;;
9208;SDS011;4639;48.862;9.188;2022-12-29T10:18:41;5.40;;;1.52;;
9208;SDS011;4639;48.862;9.188;2022-12-29T10:21:28;1.88;;;1.42;;
9208;SDS011;4639;48.862;9.188;2022-12-29T10:24:13;3.47;;;1.50;;
9208;SDS011;4639;48.862;9.188;2022-12-29T10:26:39;3.55;;;1.50;;
9208;SDS011;4639;48.862;9.188;2022-12-29T10:29:15;1.73;;;1.20;;
9208;SDS011;4639;48.862;9.188;2022-12-29T10:34:33;2.90;;;1.50;;
9208;SDS011;4639;48.862;9.188;2022-12-29T10:39:55;2.35;;;1.42;;
9208;SDS011;4639;48.862;9.188;2022-12-29T10:42:26;3.15;;;1.60;;
9208;SDS011;4639;48.862;9.188;2022-12-29T10:44:54;1.98;;;1.35;;
9208;SDS011;4639;48.862;9.188;2022-12-29T10:47:25;2.95;;;1.48;;
9208;SDS011;4639;48.862;9.188;2022-12-29T10:49:54;2.30;;;1.25;;
9208;SDS011;4639;48.862;9.188;2022-12-29T10:52:20;2.13;;;1.13;;
9208;SDS011;4639;48.862;9.188;2022-12-29T10:59:52;1.65;;;1.38;;
9208;SDS011;4639;48.862;9.188;2022-12-29T11:07:56;4.95;;;1.38;;
9208;SDS011;4639;48.862;9.188;2022-12-29T11:12:58;5.38;;;1.50;;
9208;SDS011;4639;48.862;9.188;2022-12-29T11:15:25;4.93;;;1.60;;
9208;SDS011;4639;48.862;9.188;2022-12-29T11:17:52;2.22;;;1.40;;
9208;SDS011;4639;48.862;9.188;2022-12-29T11:22:56;3.38;;;1.50;;
9208;SDS011;4639;48.862;9.188;2022-12-29T11:25:22;3.70;;;1.55;;
9208;SDS011;4639;48.862;9.188;2022-12-29T11:27:57;1.88;;;1.50;;
9208;SDS011;4639;48.862;9.188;2022-12-29T11:30:30;3.33;;;1.40;;
9208;SDS011;4639;48.862;9.188;2022-12-29T11:32:57;2.53;;;1.30;;
9208;SDS011;4639;48.862;9.188;2022-12-29T11:35:42;1.33;;;1.23;;
9208;SDS011;4639;48.862;9.188;2022-12-29T11:38:21;1.75;;;1.55;;
9208;SDS011;4639;48.862;9.188;2022-12-29T11:41:00;3.35;;;1.50;;
9208;SDS011;4639;48.862;9.188;2022-12-29T11:43:30;2.50;;;1.30;;
9208;SDS011;4639;48.862;9.188;2022-12-29T11:46:03;1.20;;;1.10;;
9208;SDS011;4639;48.862;9.188;2022-12-29T11:48:39;3.03;;;1.40;;
9208;SDS011;4639;48.862;9.188;2022-12-29T11:51:06;3.05;;;1.55;;
9208;SDS011;4639;48.862;9.188;2022-12-29T11:53:41;1.80;;;1.20;;
9208;SDS011;4639;48.862;9.188;2022-12-29T11:56:12;1.63;;;1.15;;
9208;SDS011;4639;48.862;9.188;2022-12-29T11:58:41;2.50;;;1.15;;
9208;SDS011;4639;48.862;9.188;2022-12-29T12:01:26;2.50;;;1.30;;
9208;SDS011;4639;48.862;9.188;2022-12-29T12:06:30;1.25;;;0.70;;
9208;SDS011;4639;48.862;9.188;2022-12-29T12:09:02;0.77;;;0.77;;
9208;SDS011;4639;48.862;9.188;2022-12-29T12:11:39;1.55;;;0.98;;
9208;SDS011;4639;48.862;9.188;2022-12-29T12:16:53;3.63;;;1.52;;
9208;SDS011;4639;48.862;9.188;2022-12-29T12:24:54;1.67;;;1.48;;
9208;SDS011;4639;48.862;9.188;2022-12-29T12:27:37;2.40;;;1.70;;
9208;SDS011;4639;48.862;9.188;2022-12-29T12:30:13;2.50;;;1.73;;
9208;SDS011;4639;48.862;9.188;2022-12-29T12:40:58;6.03;;;2.10;;
9208;SDS011;4639;48.862;9.188;2022-12-29T12:49:03;4.75;;;1.92;;
9208;SDS011;4639;48.862;9.188;2022-12-29T12:51:40;3.80;;;2.10;;
9208;SDS011;4639;48.862;9.188;2022-12-29T12:59:49;7.32;;;2.28;;
9208;SDS011;4639;48.862;9.188;2022-12-29T13:24:01;3.88;;;2.10;;
9208;SDS011;4639;48.862;9.188;2022-12-29T13:26:39;2.40;;;1.65;;
9208;SDS011;4639;48.862;9.188;2022-12-29T13:29:18;5.55;;;2.13;;
9208;SDS011;4639;48.862;9.188;2022-12-29T13:37:18;3.35;;;1.70;;
9208;SDS011;4639;48.862;9.188;2022-12-29T13:39:57;4.75;;;2.50;;
9208;SDS011;4639;48.862;9.188;2022-12-29T13:42:27;3.05;;;1.90;;
9208;SDS011;4639;48.862;9.188;2022-12-29T13:50:03;2.15;;;1.42;;
9208;SDS011;4639;48.862;9.188;2022-12-29T14:00:33;1.75;;;1.40;;
9208;SDS011;4639;48.862;9.188;2022-12-29T14:09:00;4.25;;;1.40;;
9208;SDS011;4639;48.862;9.188;2022-12-29T14:11:32;1.92;;;1.38;;
9208;SDS011;4639;48.862;9.188;2022-12-29T14:14:14;4.15;;;1.42;;
9208;SDS011;4639;48.862;9.188;2022-12-29T14:16:56;4.53;;;1.73;;
9208;SDS011;4639;48.862;9.188;2022-12-29T14:19:35;8.00;;;1.70;;
9208;SDS011;4639;48.862;9.188;2022-12-29T14:22:06;2.13;;;1.50;;
9208;SDS011;4639;48.862;9.188;2022-12-29T14:26:57;2.85;;;1.77;;
9208;SDS011;4639;48.862;9.188;2022-12-29T14:31:49;4.38;;;2.00;;
9208;SDS011;4639;48.862;9.188;2022-12-29T14:37:02;2.85;;;1.60;;
9208;SDS011;4639;48.862;9.188;2022-12-29T14:44:48;2.75;;;1.88;;
9208;SDS011;4639;48.862;9.188;2022-12-29T14:49:56;1.70;;;1.40;;
9208;SDS011;4639;48.862;9.188;2022-12-29T14:52:30;4.53;;;1.63;;
9208;SDS011;4639;48.862;9.188;2022-12-29T14:57:43;4.35;;;1.63;;
9208;SDS011;4639;48.862;9.188;2022-12-29T15:00:17;2.13;;;1.50;;
9208;SDS011;4639;48.862;9.188;2022-12-29T15:02:46;2.40;;;1.50;;
9208;SDS011;4639;48.862;9.188;2022-12-29T15:05:52;2.28;;;1.80;;
9208;SDS011;4639;48.862;9.188;2022-12-29T15:08:25;2.25;;;1.83;;
9208;SDS011;4639;48.862;9.188;2022-12-29T15:11:03;5.40;;;2.78;;
9208;SDS011;4639;48.862;9.188;2022-12-29T15:13:42;4.32;;;2.05;;
9208;SDS011;4639;48.862;9.188;2022-12-29T15:16:20;4.40;;;2.03;;
9208;SDS011;4639;48.862;9.188;2022-12-29T15:18:50;5.93;;;2.92;;
9208;SDS011;4639;48.862;9.188;2022-12-29T15:21:16;4.45;;;2.60;;
9208;SDS011;4639;48.862;9.188;2022-12-29T15:23:45;7.05;;;2.90;;
9208;SDS011;4639;48.862;9.188;2022-12-29T15:26:10;6.63;;;3.22;;
9208;SDS011;4639;48.862;9.188;2022-12-29T15:28:42;7.60;;;3.13;;
9208;SDS011;4639;48.862;9.188;2022-12-29T15:31:13;6.35;;;3.60;;
9208;SDS011;4639;48.862;9.188;2022-12-29T15:33:41;5.38;;;3.08;;
9208;SDS011;4639;48.862;9.188;2022-12-29T15:36:12;3.10;;;1.90;;
9208;SDS011;4639;48.862;9.188;2022-12-29T15:38:42;2.78;;;1.85;;
9208;SDS011;4639;48.862;9.188;2022-12-29T15:43:49;4.22;;;1.35;;
9208;SDS011;4639;48.862;9.188;2022-12-29T15:46:27;1.23;;;1.00;;
9208;SDS011;4639;48.862;9.188;2022-12-29T15:48:55;2.70;;;1.17;;
9208;SDS011;4639;48.862;9.188;2022-12-29T15:51:29;5.40;;;1.45;;
9208;SDS011;4639;48.862;9.188;2022-12-29T15:54:03;3.22;;;1.38;;
9208;SDS011;4639;48.862;9.188;2022-12-29T15:56:29;1.77;;;1.20;;
9208;SDS011;4639;48.862;9.188;2022-12-29T15:58:56;1.88;;;0.90;;
9208;SDS011;4639;48.862;9.188;2022-12-29T16:01:33;2.70;;;1.15;;
9208;SDS011;4639;48.862;9.188;2022-12-29T16:04:00;3.05;;;1.17;;
9208;SDS011;4639;48.862;9.188;2022-12-29T16:12:06;2.50;;;1.17;;
9208;SDS011;4639;48.862;9.188;2022-12-29T16:14:42;1.55;;;1.45;;
9208;SDS011;4639;48.862;9.188;2022-12-29T16:17:12;2.33;;;1.20;;
9208;SDS011;4639;48.862;9.188;2022-12-29T16:19:46;1.70;;;1.20;;
9208;SDS011;4639;48.862;9.188;2022-12-29T16:22:24;1.73;;;1.23;;
9208;SDS011;4639;48.862;9.188;2022-12-29T16:25:30;2.10;;;1.25;;
9208;SDS011;4639;48.862;9.188;2022-12-29T16:27:50;1.70;;;1.15;;
9208;SDS011;4639;48.862;9.188;2022-12-29T16:32:48;2.08;;;1.00;;
9208;SDS011;4639;48.862;9.188;2022-12-29T16:35:19;2.30;;;0.93;;
9208;SDS011;4639;48.862;9.188;2022-12-29T16:37:47;1.10;;;0.77;;
9208;SDS011;4639;48.862;9.188;2022-12-29T16:40:30;1.63;;;1.30;;
9208;SDS011;4639;48.862;9.188;2022-12-29T16:42:57;3.33;;;1.08;;
9208;SDS011;4639;48.862;9.188;2022-12-29T16:50:45;1.85;;;1.20;;
9208;SDS011;4639;48.862;9.188;2022-12-29T16:53:21;1.92;;;1.33;;
9208;SDS011;4639;48.862;9.188;2022-12-29T16:55:51;1.50;;;1.05;;
9208;SDS011;4639;48.862;9.188;2022-12-29T16:58:19;2.42;;;1.40;;
9208;SDS011;4639;48.862;9.188;2022-12-29T17:00:48;2.70;;;1.40;;
9208;SDS011;4639;48.862;9.188;2022-12-29T17:03:14;2.35;;;1.52;;
9208;SDS011;4639;48.862;9.188;2022-12-29T17:05:40;2.05;;;1.30;;
9208;SDS011;4639;48.862;9.188;2022-12-29T17:08:16;5.10;;;2.55;;
9208;SDS011;4639;48.862;9.188;2022-12-29T17:10:47;3.38;;;1.83;;
9208;SDS011;4639;48.862;9.188;2022-12-29T17:13:36;7.35;;;2.33;;
9208;SDS011;4639;48.862;9.188;2022-12-29T17:16:02;5.13;;;2.55;;
9208;SDS011;4639;48.862;9.188;2022-12-29T17:18:29;3.00;;;1.85;;
9208;SDS011;4639;48.862;9.188;2022-12-29T17:20:54;4.13;;;2.00;;
9208;SDS011;4639;48.862;9.188;2022-12-29T17:23:20;2.22;;;1.55;;
9208;SDS011;4639;48.862;9.188;2022-12-29T17:25:46;2.95;;;1.80;;
9208;SDS011;4639;48.862;9.188;2022-12-29T17:28:24;3.30;;;2.20;;
9208;SDS011;4639;48.862;9.188;2022-12-29T17:30:52;2.63;;;1.98;;
9208;SDS011;4639;48.862;9.188;2022-12-29T17:33:22;3.50;;;2.17;;
9208;SDS011;4639;48.862;9.188;2022-12-29T17:38:18;5.75;;;3.72;;
9208;SDS011;4639;48.862;9.188;2022-12-29T17:40:51;6.40;;;3.47;;
9208;SDS011;4639;48.862;9.188;2022-12-29T17:43:16;3.08;;;2.20;;
9208;SDS011;4639;48.862;9.188;2022-12-29T17:45:52;4.28;;;2.17;;
9208;SDS011;4639;48.862;9.188;2022-12-29T17:48:20;6.30;;;2.45;;
9208;SDS011;4639;48.862;9.188;2022-12-29T17:50:47;4.60;;;2.05;;
9208;SDS011;4639;48.862;9.188;2022-12-29T17:53:15;3.63;;;1.90;;
9208;SDS011;4639;48.862;9.188;2022-12-29T17:55:50;4.18;;;2.45;;
9208;SDS011;4639;48.862;9.188;2022-12-29T17:58:17;3.95;;;2.20;;
9208;SDS011;4639;48.862;9.188;2022-12-29T18:00:45;2.08;;;1.58;;
9208;SDS011;4639;48.862;9.188;2022-12-29T18:03:24;3.63;;;1.60;;
9208;SDS011;4639;48.862;9.188;2022-12-29T18:05:50;3.15;;;1.40;;
9208;SDS011;4639;48.862;9.188;2022-12-29T18:08:16;2.63;;;1.00;;
9208;SDS011;4639;48.862;9.188;2022-12-29T18:10:42;3.15;;;1.20;;
9208;SDS011;4639;48.862;9.188;2022-12-29T18:13:09;2.92;;;1.30;;
9208;SDS011;4639;48.862;9.188;2022-12-29T18:15:47;3.42;;;1.30;;
9208;SDS011;4639;48.862;9.188;2022-12-29T18:18:13;2.97;;;1.38;;
9208;SDS011;4639;48.862;9.188;2022-12-29T18:20:50;5.20;;;1.70;;
9208;SDS011;4639;48.862;9.188;2022-12-29T18:23:22;5.45;;;1.45;;
9208;SDS011;4639;48.862;9.188;2022-12-29T18:25:56;1.70;;;1.30;;
9208;SDS011;4639;48.862;9.188;2022-12-29T18:28:28;4.78;;;1.58;;
9208;SDS011;4639;48.862;9.188;2022-12-29T18:30:58;2.17;;;1.00;;
9208;SDS011;4639;48.862;9.188;2022-12-29T18:33:25;4.60;;;1.27;;